Ames, Nebraska
Current Conditions -  °F | °C
As of 2:55 AM on Thursday 23 Oct 2014 (Local Time) from KFET Reporting Station
Overcast Overcast  
Wind Chill: 62°   Ceiling: 2600
Heat Index: 62°   Visibility: 10mi
Dew Point: 60°   Wind: 5mph
Humidity: 90%   Direction: 260°W
Pressure: 30.03"   Gusts: NA
Location:  41.45°N, 96.63°W
Report Text: KFET 230755Z AUTO 26004KT 10SM OVC026 17/15 A3003 RMK AO2 T01690153
Loading
Personal Weather Stations






























Interactive Weather Map
Tropical Storm Tracking
New forecast layout! Learn more

10-Day Weather Forecast

Advertisements
Track Severe Weather on mobile